Map

Track Data

SID SEASON NUMBER BASIN SUBBASIN NAME ISO_TIME NATURE LAT LON WMO_WIND WMO_PRES WMO_AGENCY TRACK_TYPE DIST2LAND LANDFALL IFLAG USA_AGENCY USA_ATCF_ID USA_LAT USA_LON USA_RECORD USA_STATUS USA_WIND USA_PRES USA_SSHS USA_R34_NE USA_R34_SE USA_R34_SW USA_R34_NW USA_R50_NE USA_R50_SE USA_R50_SW USA_R50_NW USA_R64_NE USA_R64_SE USA_R64_SW USA_R64_NW USA_POCI USA_ROCI USA_RMW USA_EYE TOKYO_LAT TOKYO_LON TOKYO_GRADE TOKYO_WIND TOKYO_PRES TOKYO_R50_DIR TOKYO_R50_LONG TOKYO_R50_SHORT TOKYO_R30_DIR TOKYO_R30_LONG TOKYO_R30_SHORT TOKYO_LAND CMA_LAT CMA_LON CMA_CAT CMA_WIND CMA_PRES HKO_LAT HKO_LON HKO_CAT HKO_WIND HKO_PRES NEWDELHI_LAT NEWDELHI_LON NEWDELHI_GRADE NEWDELHI_WIND NEWDELHI_PRES NEWDELHI_CI NEWDELHI_DP NEWDELHI_POCI REUNION_LAT REUNION_LON REUNION_TYPE REUNION_WIND REUNION_PRES REUNION_TNUM REUNION_CI REUNION_RMW REUNION_R34_NE REUNION_R34_SE REUNION_R34_SW REUNION_R34_NW REUNION_R50_NE REUNION_R50_SE REUNION_R50_SW REUNION_R50_NW REUNION_R64_NE REUNION_R64_SE REUNION_R64_SW REUNION_R64_NW BOM_LAT BOM_LON BOM_TYPE BOM_WIND BOM_PRES BOM_TNUM BOM_CI BOM_RMW BOM_R34_NE BOM_R34_SE BOM_R34_SW BOM_R34_NW BOM_R50_NE BOM_R50_SE BOM_R50_SW BOM_R50_NW BOM_R64_NE BOM_R64_SE BOM_R64_SW BOM_R64_NW BOM_ROCI BOM_POCI BOM_EYE BOM_POS_METHOD BOM_PRES_METHOD NADI_LAT NADI_LON NADI_CAT NADI_WIND NADI_PRES WELLINGTON_LAT WELLINGTON_LON WELLINGTON_WIND WELLINGTON_PRES DS824_LAT DS824_LON DS824_STAGE DS824_WIND DS824_PRES TD9636_LAT TD9636_LON TD9636_STAGE TD9636_WIND TD9636_PRES TD9635_LAT TD9635_LON TD9635_WIND TD9635_PRES TD9635_ROCI NEUMANN_LAT NEUMANN_LON NEUMANN_CLASS NEUMANN_WIND NEUMANN_PRES MLC_LAT MLC_LON MLC_CLASS MLC_WIND MLC_PRES USA_GUST BOM_GUST BOM_GUST_PER REUNION_GUST REUNION_GUST_PER USA_SEAHGT USA_SEARAD_NE USA_SEARAD_SE USA_SEARAD_SW USA_SEARAD_NW STORM_SPEED STORM_DIR
1938145N21089 1938 26 NI BB NOT_NAMED 1938-05-25 00:00:00 TS 20.5000 89.2000 main 123 113 _________O____ -1 20.5000 89.2000 TC 30 3 46
1938145N21089 1938 26 NI BB NOT_NAMED 1938-05-25 03:00:00 TS 20.5950 89.3050 main 113 105 _________PO___ -1 20.6425 89.3574 TC 30 20.5000 89.2000 1 3 43
1938145N21089 1938 26 NI BB NOT_NAMED 1938-05-25 06:00:00 TS 20.7394 89.4380 main 105 88 _________OP___ -1 20.8000 89.5000 TC 30 20.6486 89.3451 1 4 37
1938145N21089 1938 26 NI BB NOT_NAMED 1938-05-25 09:00:00 TS 20.9090 89.5581 main 91 70 _________PP___ -1 20.9850 89.6150 TC 30 20.8077 89.4823 1 4 29
1938145N21089 1938 26 NI BB NOT_NAMED 1938-05-25 12:00:00 TS 21.0940 89.6517 main 73 54 _________OP___ -1 21.2000 89.7000 TC 30 20.9879 89.6033 1 4 22
1938145N21089 1938 26 NI BB NOT_NAMED 1938-05-25 15:00:00 TS 21.3212 89.7325 main 54 22 _________PO___ -1 21.4425 89.7650 TC 30 21.2000 89.7000 1 5 14
1938145N21089 1938 26 NI BB NOT_NAMED 1938-05-25 18:00:00 TS 21.5743 89.7830 main 22 0 _________OP___ -1 21.7000 89.8000 TC 30 21.4487 89.7660 1 5 8
1938145N21089 1938 26 NI BB NOT_NAMED 1938-05-25 21:00:00 TS 21.8400 89.8088 main 0 0 _________PP___ -1 21.9650 89.8150 TC 30 21.7149 89.8026 1 5 2
1938145N21089 1938 26 NI BB NOT_NAMED 1938-05-26 00:00:00 TS 22.0869 89.8064 main 0 0 _________OP___ -1 22.2000 89.8000 TC 30 21.9737 89.8128 1 4 0
1938145N21089 1938 26 NI BB NOT_NAMED 1938-05-26 03:00:00 TS 22.2863 89.7788 main 0 0 _________PO___ -1 22.3725 89.7575 TC 30 22.2000 89.8000 1 4 351
1938145N21089 1938 26 NI BB NOT_NAMED 1938-05-26 06:00:00 TS 22.4345 89.7439 main 0 0 _________OP___ -1 22.5000 89.7000 TC 30 22.3690 89.7878 1 3 346
1938145N21089 1938 26 NI BB NOT_NAMED 1938-05-26 09:00:00 TS 22.5549 89.7087 main 0 0 _________PP___ -1 22.6075 89.6649 TC 30 22.5024 89.7525 1 2 338
1938145N21089 1938 26 NI BB NOT_NAMED 1938-05-26 12:00:00 TS 22.6548 89.6455 main 0 0 _________OP___ -1 22.7000 89.6000 TC 30 22.6096 89.6909 1 3 321
1938145N21089 1938 26 NI BB NOT_NAMED 1938-05-26 15:00:00 TS 22.7538 89.5325 main 0 0 _________PO___ -1 22.8075 89.4650 TC 30 22.7000 89.6000 1 3 309
1938145N21089 1938 26 NI BB NOT_NAMED 1938-05-26 18:00:00 TS 22.8385 89.3994 main 0 0 _________OP___ -1 22.9000 89.3000 TC 30 22.7771 89.4988 1 3 300
1938145N21089 1938 26 NI BB NOT_NAMED 1938-05-26 21:00:00 TS 22.8923 89.2697 main 0 0 _________PP___ -1 22.9424 89.1724 TC 30 22.8423 89.3671 1 3 293
1938145N21089 1938 26 NI BB NOT_NAMED 1938-05-27 00:00:00 TS 22.9557 89.1009 main 0 0 _________OP___ -1 23.0000 89.0000 TC 30 22.9114 89.2018 1 4 295
1938145N21089 1938 26 NI BB NOT_NAMED 1938-05-27 03:00:00 TS 23.0675 88.8575 main 0 0 _________PO___ -1 23.1351 88.7151 TC 30 23.0000 89.0000 1 5 298
1938145N21089 1938 26 NI BB NOT_NAMED 1938-05-27 06:00:00 TS 23.2123 88.5745 main 0 0 _________OP___ -1 23.3000 88.4000 TC 30 23.1246 88.7489 1 6 300
1938145N21089 1938 26 NI BB NOT_NAMED 1938-05-27 09:00:00 TS 23.3602 88.3001 main 0 0 _________PP___ -1 23.4500 88.1349 TC 30 23.2704 88.4653 1 6 302
1938145N21089 1938 26 NI BB NOT_NAMED 1938-05-27 12:00:00 TS 23.5154 88.0370 main 0 0 _________OP___ -1 23.6000 87.9000 TC 30 23.4309 88.1739 1 6 304
1938145N21089 1938 26 NI BB NOT_NAMED 1938-05-27 15:00:00 TS 23.6712 87.7962 main 0 0 _________PO___ -1 23.7424 87.6924 TC 30 23.6000 87.9000 1 5 307
1938145N21089 1938 26 NI BB NOT_NAMED 1938-05-27 18:00:00 TS 23.8272 87.5930 main 0 0 _________OP___ -1 23.9000 87.5000 TC 30 23.7727 87.6628 1 5 312
1938145N21089 1938 26 NI BB NOT_NAMED 1938-05-27 21:00:00 TS 24.0044 87.3956 main 0 0 _________PP___ -1 24.0901 87.3027 TC 30 23.9473 87.4576 1 5 316
1938145N21089 1938 26 NI BB NOT_NAMED 1938-05-28 00:00:00 TS 24.1822 87.2157 main 0 0 _________OP___ -1 24.3000 87.1000 TC 30 24.1234 87.2736 1 4 318
1938145N21089 1938 26 NI BB NOT_NAMED 1938-05-28 03:00:00 NR 24.3000 87.1000 main 0 __________O___ -1 TC 24.3000 87.1000 1 3 318

About IBTrACS Database

This database is a web-friendly format of International Best Track Archive for Climate Stewardship (IBTrACS), a global best track data archive curated by NOAA dating back to 1842.

Updated: 2021-12-03